Time;durP1;ratioP1;P1;durP2;ratioP2;P2;SDS_P1;SDS_P2;PMS_P1;PMS_P2;Temp;Humidity;BMP_temperature;BMP_pressure;BME280_temperature;BME280_humidity;BME280_pressure;Samples;Min_cycle;Max_cycle;Signal;HPM_P1;HPM_P2
2021/05/03 00:01:38;;;;;;;12.87;11.93;;;5.50;99.90;;;6.28;84.84;98339.47;5226199;28;20203;-66
2021/05/03 00:04:10;;;;;;;12.97;11.93;;;5.50;99.90;;;6.25;85.56;98341.78;5226049;28;20205;-65
2021/05/03 00:06:42;;;;;;;13.03;11.93;;;5.50;99.90;;;6.27;85.13;98341.13;5225582;28;20197;-65
2021/05/03 00:09:14;;;;;;;13.00;11.93;;;5.60;99.90;;;6.32;85.43;98344.03;5225007;28;20225;-65
2021/05/03 00:11:46;;;;;;;13.60;12.40;;;5.50;99.90;;;6.34;85.24;98347.59;5226306;28;20225;-66
2021/05/03 00:14:19;;;;;;;12.50;11.50;;;5.60;99.90;;;6.34;84.97;98345.03;5225716;28;20193;-66
2021/05/03 00:16:51;;;;;;;11.83;10.80;;;5.50;99.90;;;6.31;85.09;98343.16;5225965;28;20307;-65
2021/05/03 00:19:23;;;;;;;11.80;10.77;;;5.50;99.90;;;6.24;85.05;98343.44;5225519;28;20203;-65
2021/05/03 00:21:56;;;;;;;11.73;10.87;;;5.40;99.90;;;6.21;84.92;98340.66;5225604;28;20296;-65
2021/05/03 00:24:27;;;;;;;10.93;10.03;;;5.50;99.90;;;6.20;85.23;98343.03;5225552;28;20198;-65
2021/05/03 00:27:00;;;;;;;11.90;11.00;;;5.50;99.90;;;6.24;85.13;98340.88;5225933;28;20203;-65
2021/05/03 00:29:33;;;;;;;12.23;11.23;;;5.50;99.90;;;6.20;84.38;98343.03;5225237;28;20683;-66
2021/05/03 00:32:06;;;;;;;10.83;10.07;;;5.40;99.90;;;6.17;85.11;98338.59;5225479;28;20221;-66
2021/05/03 00:34:38;;;;;;;11.60;10.70;;;5.40;99.90;;;6.11;84.50;98342.28;5225633;28;20460;-65
2021/05/03 00:37:10;;;;;;;10.57;9.77;;;5.30;99.90;;;6.05;83.68;98337.59;5225420;28;20255;-65
2021/05/03 00:39:43;;;;;;;11.60;10.60;;;5.20;99.90;;;6.04;84.58;98338.38;5224986;28;20543;-66
2021/05/03 00:42:15;;;;;;;11.10;10.17;;;5.30;99.90;;;6.02;84.69;98337.34;5225006;28;20239;-64
2021/05/03 00:44:50;;;;;;;12.60;11.60;;;5.30;99.90;;;6.01;85.91;98340.63;5225769;28;20295;-66
2021/05/03 00:47:23;;;;;;;11.30;10.40;;;5.30;99.90;;;6.00;85.73;98337.22;5225288;28;20211;-65
2021/05/03 00:49:55;;;;;;;12.93;11.83;;;5.30;99.90;;;6.01;85.07;98331.41;5225573;28;20665;-65
2021/05/03 00:52:27;;;;;;;12.10;11.20;;;5.30;99.90;;;5.99;85.47;98339.66;5224827;28;20311;-65
2021/05/03 00:54:59;;;;;;;12.50;11.57;;;5.30;99.90;;;5.99;85.16;98339.66;5228848;28;20201;-66
2021/05/03 00:57:31;;;;;;;12.57;11.67;;;5.30;99.90;;;6.01;85.14;98346.63;5229493;28;20189;-66
2021/05/03 01:00:07;;;;;;;11.70;10.80;;;5.30;99.90;;;6.03;85.07;98344.19;5229446;28;20196;-66
2021/05/03 01:02:41;;;;;;;12.07;11.17;;;5.30;99.90;;;6.03;85.43;98349.28;5229229;28;20212;-66
2021/05/03 01:05:14;;;;;;;11.57;10.63;;;5.30;99.90;;;5.99;85.26;98352.31;5229771;28;20565;-65
2021/05/03 01:07:46;;;;;;;12.47;11.47;;;5.30;99.90;;;5.94;84.96;98348.53;5228862;28;20216;-66
2021/05/03 01:10:18;;;;;;;12.83;11.73;;;5.20;99.90;;;5.91;84.61;98345.69;5228830;28;20206;-64
2021/05/03 01:12:52;;;;;;;12.03;11.03;;;5.10;99.90;;;5.80;83.88;98355.81;5229198;28;20590;-66
2021/05/03 01:15:25;;;;;;;11.87;10.87;;;5.00;99.90;;;5.84;84.68;98352.81;5229275;28;20203;-65
2021/05/03 01:18:00;;;;;;;12.80;11.67;;;5.10;99.90;;;5.80;84.35;98355.81;5229091;28;20600;-64
2021/05/03 01:20:34;;;;;;;11.50;10.60;;;5.10;99.90;;;5.79;85.17;98359.13;5229668;28;20197;-64
2021/05/03 01:23:08;;;;;;;12.73;11.73;;;5.10;99.90;;;5.75;84.91;98357.13;5228536;28;20258;-67
2021/05/03 01:25:42;;;;;;;13.17;12.07;;;5.10;99.90;;;5.77;85.00;98354.69;5229087;28;20292;-66
2021/05/03 01:28:14;;;;;;;12.83;11.73;;;5.00;99.90;;;5.76;84.95;98363.06;5228642;28;20688;-64
2021/05/03 01:30:48;;;;;;;12.97;11.97;;;5.00;99.90;;;5.76;85.93;98363.94;5229414;28;20193;-66
2021/05/03 01:33:21;;;;;;;12.83;11.73;;;5.10;99.90;;;5.73;85.55;98363.69;5228855;28;20287;-67
2021/05/03 01:35:53;;;;;;;12.53;11.47;;;5.10;99.90;;;5.76;85.46;98369.03;5228052;28;20197;-66
2021/05/03 01:38:26;;;;;;;12.77;11.67;;;5.00;99.90;;;5.78;85.57;98362.44;5228389;28;20204;-66
2021/05/03 01:40:58;;;;;;;13.03;11.87;;;5.00;99.90;;;5.81;85.60;98364.34;5228732;28;20193;-66
2021/05/03 01:43:30;;;;;;;11.73;10.73;;;5.10;99.90;;;5.82;86.08;98364.47;5242176;28;20219;-64
2021/05/03 01:46:04;;;;;;;12.30;11.30;;;5.10;99.90;;;5.80;86.24;98365.09;5234242;28;20201;-65
2021/05/03 01:48:36;;;;;;;11.50;10.60;;;5.10;99.90;;;5.79;85.46;98373.47;5228045;28;20224;-64
2021/05/03 01:51:08;;;;;;;12.37;11.27;;;5.10;99.90;;;5.82;85.58;98374.59;5228661;28;20201;-67
2021/05/03 01:53:41;;;;;;;11.67;10.73;;;5.10;99.90;;;5.79;85.60;98374.34;5228806;28;20216;-63
2021/05/03 01:56:16;;;;;;;12.17;11.17;;;5.10;99.90;;;5.80;85.57;98376.13;5228451;28;20194;-66
2021/05/03 01:58:48;;;;;;;11.33;10.50;;;5.00;99.90;;;5.81;84.75;98377.91;5228386;28;20192;-64
2021/05/03 02:01:20;;;;;;;11.70;10.87;;;5.00;99.90;;;5.81;84.93;98379.56;5228611;28;20208;-65
2021/05/03 02:03:53;;;;;;;11.53;10.63;;;5.00;99.90;;;5.75;85.47;98373.94;5228322;28;20217;-66
2021/05/03 02:06:24;;;;;;;10.93;9.93;;;5.00;99.90;;;5.68;85.41;98375.09;5228119;28;20208;-66
2021/05/03 02:08:57;;;;;;;11.60;10.60;;;4.90;99.90;;;5.62;84.85;98378.00;5228162;28;20224;-65
2021/05/03 02:11:29;;;;;;;11.27;10.37;;;4.90;99.90;;;5.58;85.12;98380.13;5228026;28;20205;-65
2021/05/03 02:14:01;;;;;;;11.83;10.73;;;4.80;99.90;;;5.57;85.51;98373.31;5248240;22;20227;-64
2021/05/03 02:16:33;;;;;;;12.00;10.97;;;4.80;99.90;;;5.57;85.59;98381.78;5241450;28;20307;-66
2021/05/03 02:19:05;;;;;;;12.63;11.63;;;4.80;99.90;;;5.63;85.85;98389.03;5244560;28;20459;-64
2021/05/03 02:21:37;;;;;;;12.37;11.40;;;4.90;99.90;;;5.69;85.71;98381.94;5238684;28;20204;-64
2021/05/03 02:24:11;;;;;;;11.90;11.07;;;5.00;99.90;;;5.68;85.99;98380.16;5247799;28;20257;-65
2021/05/03 02:26:43;;;;;;;11.37;10.57;;;5.00;99.90;;;5.73;85.39;98373.84;5258737;28;20293;-64
2021/05/03 02:29:16;;;;;;;11.20;10.30;;;5.00;99.90;;;5.75;85.75;98377.41;5269538;28;20234;-62
2021/05/03 02:31:48;;;;;;;12.17;11.27;;;5.00;99.90;;;5.81;85.13;98372.84;5259677;28;20193;-65
2021/05/03 02:34:20;;;;;;;12.10;11.17;;;5.00;99.90;;;5.77;84.68;98360.66;5248635;28;20694;-65
2021/05/03 02:36:55;;;;;;;12.60;11.60;;;5.00;99.90;;;5.73;85.01;98360.28;5262084;28;20206;-65
2021/05/03 02:39:28;;;;;;;12.33;11.23;;;4.90;99.90;;;5.63;84.71;98363.69;5256650;28;20743;-65
2021/05/03 02:42:00;;;;;;;12.20;11.23;;;4.80;99.90;;;5.55;84.96;98367.22;5252833;28;20673;-65
2021/05/03 02:44:32;;;;;;;12.27;11.17;;;4.70;99.90;;;5.51;84.72;98362.66;5248722;28;20593;-65
2021/05/03 02:47:06;;;;;;;12.47;11.57;;;4.70;99.90;;;5.43;85.61;98357.81;5263068;28;20270;-65
2021/05/03 02:49:39;;;;;;;11.07;10.17;;;4.70;99.90;;;5.41;86.01;98366.94;5248072;28;20716;-64
2021/05/03 02:52:11;;;;;;;12.37;11.43;;;4.70;99.90;;;5.40;85.61;98367.69;5257381;28;20285;-65
2021/05/03 02:54:44;;;;;;;13.30;12.20;;;4.60;99.90;;;5.30;85.46;98375.28;5256478;28;20655;-64
2021/05/03 02:57:16;;;;;;;13.47;12.20;;;4.60;99.90;;;5.22;85.23;98388.06;5253666;28;20221;-64
2021/05/03 02:59:48;;;;;;;13.00;11.90;;;4.50;99.90;;;5.18;85.45;98385.25;5268966;28;20202;-64
2021/05/03 03:02:21;;;;;;;12.87;11.73;;;4.40;99.90;;;5.19;85.82;98386.13;5261258;28;20208;-64
2021/05/03 03:04:53;;;;;;;12.83;11.80;;;4.50;99.90;;;5.19;86.02;98388.69;5258422;28;20673;-66
2021/05/03 03:07:25;;;;;;;13.57;12.47;;;4.40;99.90;;;5.19;85.93;98391.22;5260993;28;20595;-66
2021/05/03 03:09:58;;;;;;;12.60;11.60;;;4.40;99.90;;;5.16;86.19;98394.38;5262046;28;20215;-66
2021/05/03 03:12:32;;;;;;;12.10;11.10;;;4.40;99.90;;;5.17;85.84;98392.72;5259121;28;20228;-64
2021/05/03 03:15:08;;;;;;;12.60;11.67;;;4.40;99.90;;;5.10;85.98;98393.84;5266955;28;20289;-65
2021/05/03 03:17:40;;;;;;;12.43;11.43;;;4.30;99.90;;;5.02;86.66;98389.75;5259896;28;20204;-64
2021/05/03 03:20:14;;;;;;;12.33;11.43;;;4.30;99.90;;;4.95;86.46;98390.88;5255096;28;20198;-65
2021/05/03 03:22:47;;;;;;;12.47;11.50;;;4.30;99.90;;;4.96;86.79;98395.16;5258804;28;20212;-65
2021/05/03 03:25:20;;;;;;;13.40;12.30;;;4.30;99.90;;;4.90;86.56;98394.63;5265201;28;20205;-65
2021/05/03 03:27:52;;;;;;;13.33;12.23;;;4.20;99.90;;;4.82;86.23;98393.06;5261931;28;20285;-65
2021/05/03 03:30:25;;;;;;;12.30;11.30;;;4.10;99.90;;;4.87;86.24;98391.84;5247744;28;20571;-64
2021/05/03 03:32:57;;;;;;;13.30;12.30;;;4.10;99.90;;;4.81;85.45;98391.31;5247575;28;20590;-65
2021/05/03 03:35:29;;;;;;;13.33;12.23;;;4.00;99.90;;;4.77;85.48;98390.88;5250838;28;20680;-65
2021/05/03 03:38:01;;;;;;;13.43;12.23;;;4.00;99.90;;;4.74;86.02;98391.50;5262681;28;20192;-65
2021/05/03 03:40:34;;;;;;;11.60;10.70;;;4.00;99.90;;;4.65;85.97;98388.19;5257423;28;20208;-64
2021/05/03 03:43:06;;;;;;;13.70;12.47;;;3.90;99.90;;;4.68;86.40;98393.50;5249697;28;20216;-64
2021/05/03 03:45:38;;;;;;;14.10;12.80;;;3.90;99.90;;;4.62;87.01;98403.09;5255023;28;20203;-65
2021/05/03 03:48:10;;;;;;;13.27;12.17;;;3.90;99.90;;;4.63;86.81;98404.84;5248622;28;20253;-66
2021/05/03 03:50:42;;;;;;;12.80;11.73;;;3.90;99.90;;;4.55;86.60;98406.72;5257049;28;20227;-65
2021/05/03 03:53:18;;;;;;;13.37;12.07;;;3.80;99.90;;;4.53;86.40;98407.34;5249287;28;20251;-64
2021/05/03 03:55:51;;;;;;;12.97;11.97;;;3.80;99.90;;;4.51;86.62;98410.59;5255411;28;20198;-64
2021/05/03 03:58:23;;;;;;;12.90;11.90;;;3.80;99.90;;;4.47;87.06;98413.63;5249828;28;20195;-64
2021/05/03 04:00:55;;;;;;;13.60;12.40;;;3.80;99.90;;;4.48;86.79;98423.00;5255281;28;20190;-65
2021/05/03 04:03:27;;;;;;;12.83;11.73;;;3.80;99.90;;;4.50;86.25;98418.97;5250628;28;20222;-65
2021/05/03 04:06:14;;;;;;;14.27;13.07;;;3.80;99.90;;;4.37;86.41;98416.09;5255274;28;20732;-64
2021/05/03 04:08:51;;;;;;;14.37;13.17;;;3.70;99.90;;;4.38;86.72;98427.09;5246731;28;20228;-66
2021/05/03 04:11:37;;;;;;;13.33;12.13;;;3.70;99.90;;;4.36;86.94;98419.38;5256190;28;20202;-64
2021/05/03 04:23:05;;;;;;;12.47;11.40;;;3.50;99.90;;;4.31;86.03;98425.66;5247613;28;20221;-65
2021/05/03 04:25:38;;;;;;;13.90;12.60;;;3.60;99.90;;;4.32;86.51;98439.19;5250772;28;20206;-64
2021/05/03 04:28:11;;;;;;;13.87;12.67;;;3.60;99.90;;;4.32;86.25;98439.19;5251071;28;20197;-63
2021/05/03 04:30:43;;;;;;;14.50;13.00;;;3.60;99.90;;;4.32;86.62;98447.69;5251441;28;20193;-64
2021/05/03 04:33:15;;;;;;;13.67;12.37;;;3.60;99.90;;;4.34;86.23;98451.22;5259988;28;20225;-65
2021/05/03 04:35:47;;;;;;;14.70;13.40;;;3.60;99.90;;;4.36;85.93;98447.22;5249055;28;20198;-61
2021/05/03 04:38:19;;;;;;;13.67;12.43;;;3.60;99.90;;;4.38;85.69;98452.38;5252537;28;20189;-65
2021/05/03 04:40:51;;;;;;;12.83;11.83;;;3.60;99.90;;;4.42;86.01;98455.34;5256559;28;20202;-63
2021/05/03 04:43:25;;;;;;;13.63;12.43;;;3.60;99.90;;;4.39;85.47;98452.53;5251304;28;20218;-66
2021/05/03 04:45:57;;;;;;;13.13;11.97;;;3.60;99.90;;;4.43;85.67;98449.53;5262528;28;20676;-66
2021/05/03 04:48:29;;;;;;;13.60;12.30;;;3.70;99.90;;;4.45;85.60;98455.63;5249986;28;20309;-65
2021/05/03 04:51:01;;;;;;;13.93;12.73;;;3.70;99.90;;;4.42;84.51;98452.81;5246859;28;20194;-64
2021/05/03 04:53:33;;;;;;;14.07;12.87;;;3.60;99.90;;;4.36;84.40;98454.81;5246794;28;20209;-66
2021/05/03 04:56:06;;;;;;;13.70;12.60;;;3.60;99.90;;;4.32;84.26;98452.75;5260470;28;20197;-64
2021/05/03 04:58:39;;;;;;;13.73;12.63;;;3.60;99.90;;;4.43;84.75;98457.13;5250975;28;20198;-65
2021/05/03 05:01:12;;;;;;;15.23;13.80;;;3.70;99.90;;;4.52;84.95;98467.19;5247777;28;20193;-65
2021/05/03 05:07:01;;;;;;;13.33;12.13;;;3.90;99.90;;;4.68;85.25;98459.34;5208656;22;20226;-65
2021/05/03 05:09:34;;;;;;;14.13;12.90;;;4.00;99.90;;;4.74;84.76;98454.81;5220376;28;20228;-65
2021/05/03 05:12:06;;;;;;;13.23;12.13;;;4.10;99.90;;;4.88;84.22;98459.44;5227528;28;20191;-64
2021/05/03 05:14:39;;;;;;;13.87;12.67;;;4.10;99.90;;;5.00;83.73;98468.88;5225199;28;20235;-65
2021/05/03 05:17:11;;;;;;;13.33;12.20;;;4.10;99.90;;;5.23;83.46;98468.38;5220601;28;20218;-63
2021/05/03 05:19:44;;;;;;;14.50;13.30;;;4.30;99.90;;;5.67;82.50;98463.75;5225624;22;20224;-63
2021/05/03 05:22:17;;;;;;;13.00;11.90;;;4.70;99.90;;;6.20;80.65;98468.28;5201518;28;20289;-61
2021/05/03 05:24:49;;;;;;;12.10;11.10;;;5.10;99.90;;;6.74;78.87;98468.53;5203251;28;20198;-59
2021/05/03 05:27:21;;;;;;;12.20;11.10;;;5.50;99.90;;;7.26;75.81;98460.78;5205140;28;20204;-59
2021/05/03 05:29:54;;;;;;;11.27;10.47;;;6.00;99.90;;;7.60;74.23;98464.31;5197638;28;20222;-62
2021/05/03 05:32:26;;;;;;;11.13;10.20;;;6.40;99.90;;;8.00;72.61;98465.75;5189715;28;20194;-59
2021/05/03 05:34:58;;;;;;;11.53;10.53;;;6.70;99.90;;;8.38;71.32;98462.66;5180888;28;20216;-60
2021/05/03 05:37:30;;;;;;;11.37;10.40;;;7.00;99.90;;;8.61;70.23;98466.97;5174601;28;20229;-59
2021/05/03 05:40:03;;;;;;;10.07;9.27;;;7.10;99.90;;;8.90;69.09;98476.78;5182993;28;20218;-61
2021/05/03 05:42:35;;;;;;;10.77;9.97;;;7.30;99.90;;;9.21;67.61;98473.91;5183397;28;20202;-61
2021/05/03 05:45:10;;;;;;;11.30;10.40;;;7.60;99.90;;;9.46;66.28;98474.00;5186725;28;20194;-59
2021/05/03 05:47:42;;;;;;;11.40;10.40;;;7.80;99.90;;;9.81;64.84;98467.94;5186746;28;20218;-59
2021/05/03 05:50:14;;;;;;;11.70;10.70;;;8.20;99.90;;;9.83;64.91;98469.81;5191339;28;20230;-61
2021/05/03 05:52:46;;;;;;;11.07;10.17;;;8.20;99.90;;;10.16;63.69;98475.50;5191983;28;20204;-61
2021/05/03 05:55:18;;;;;;;11.35;10.35;;;8.30;99.90;;;10.56;62.64;98470.56;5200333;28;20196;-61
2021/05/03 05:57:50;;;;;;;11.10;10.20;;;8.50;99.90;;;10.79;62.04;98467.84;5178503;28;20199;-60
2021/05/03 06:00:23;;;;;;;11.85;10.85;;;8.80;99.90;;;11.02;61.23;98471.91;5178057;28;20223;-58
2021/05/03 06:02:55;;;;;;;11.50;10.57;;;9.00;99.90;;;11.00;61.20;98463.25;5178742;28;20281;-61
2021/05/03 06:05:28;;;;;;;11.82;10.82;;;9.00;99.90;;;10.69;62.35;98473.13;5186013;28;20581;-61
2021/05/03 06:08:00;;;;;;;10.68;9.85;;;8.80;99.90;;;10.47;63.66;98467.34;5174650;28;20294;-61
2021/05/03 06:10:32;;;;;;;10.98;10.07;;;8.70;99.90;;;10.17;65.40;98469.59;5183570;28;20263;-60
2021/05/03 06:13:04;;;;;;;11.20;10.30;;;8.60;99.90;;;10.10;65.05;98480.16;5191737;28;20199;-60
2021/05/03 06:15:37;;;;;;;11.57;10.68;;;8.40;99.90;;;9.91;65.77;98480.56;5184867;28;20205;-61
2021/05/03 06:18:09;;;;;;;10.90;10.05;;;8.30;99.90;;;10.02;65.84;98486.44;5183729;28;20208;-56
2021/05/03 06:20:41;;;;;;;11.75;10.75;;;8.50;99.90;;;10.09;64.68;98489.50;5185642;28;20764;-59
2021/05/03 06:23:13;;;;;;;11.63;10.65;;;8.50;99.90;;;10.04;65.41;98485.72;5184982;28;20293;-61
2021/05/03 06:25:45;;;;;;;10.88;9.98;;;8.50;99.90;;;10.48;64.97;98484.50;5169721;28;20242;-61
2021/05/03 06:28:17;;;;;;;12.25;11.18;;;8.80;99.90;;;10.89;64.27;98484.66;5180462;28;20589;-60
2021/05/03 06:30:55;;;;;;;11.32;10.43;;;9.10;99.90;;;11.45;61.93;98481.47;5177332;28;20562;-61
2021/05/03 06:33:27;;;;;;;11.43;10.55;;;9.60;99.90;;;11.79;60.55;98478.44;5185001;28;20709;-60
2021/05/03 06:35:59;;;;;;;12.23;11.27;;;10.10;99.90;;;12.38;58.37;98478.69;5172137;28;20191;-61
2021/05/03 06:38:31;;;;;;;11.07;10.20;;;10.60;99.90;;;13.06;56.52;98476.69;5178225;28;20210;-61
2021/05/03 06:41:03;;;;;;;11.73;10.73;;;11.10;99.90;;;13.73;54.60;98473.59;5183631;28;20218;-61
2021/05/03 06:43:35;;;;;;;11.18;10.10;;;11.50;99.90;;;14.27;52.19;98468.75;5187719;28;20645;-61
2021/05/03 06:46:08;;;;;;;11.55;10.60;;;12.00;99.90;;;14.55;51.57;98477.13;5184506;28;20297;-60
2021/05/03 06:48:40;;;;;;;10.57;9.73;;;12.20;99.90;;;14.98;50.17;98474.13;5183859;28;20722;-62
2021/05/03 06:51:12;;;;;;;10.85;9.85;;;12.50;99.90;;;15.00;48.15;98479.38;5179895;28;20219;-62
2021/05/03 06:53:45;;;;;;;10.80;9.88;;;12.60;99.90;;;15.14;49.12;98480.94;5177322;28;20201;-60
2021/05/03 06:56:16;;;;;;;10.07;9.38;;;12.60;99.90;;;15.18;48.83;98482.84;5187570;28;20207;-60
2021/05/03 06:58:48;;;;;;;10.80;9.82;;;12.90;99.90;;;15.59;48.07;98483.94;5176083;28;20200;-61
2021/05/03 07:01:22;;;;;;;9.98;9.07;;;13.20;99.90;;;15.97;46.62;98490.06;5182809;28;20218;-63
2021/05/03 07:03:54;;;;;;;10.15;9.25;;;13.40;99.90;;;16.26;45.87;98483.66;5184023;28;20290;-61
2021/05/03 07:06:26;;;;;;;9.88;9.07;;;13.80;99.90;;;16.57;44.46;98483.28;5185921;28;20231;-61
2021/05/03 07:08:58;;;;;;;9.40;8.60;;;14.30;98.20;;;16.58;43.21;98481.59;5188012;28;20716;-63
2021/05/03 07:11:31;;;;;;;10.27;9.40;;;14.20;97.40;;;16.94;42.17;98484.91;5194842;28;20224;-62
2021/05/03 07:14:04;;;;;;;9.05;8.35;;;14.60;96.60;;;17.24;42.56;98486.97;5176378;28;20619;-62
2021/05/03 07:16:36;;;;;;;9.77;8.98;;;14.60;96.90;;;17.07;41.66;98484.56;5165329;28;20253;-62
2021/05/03 07:19:09;;;;;;;8.52;7.82;;;14.60;95.80;;;17.51;41.00;98484.63;5184874;28;20293;-62
2021/05/03 07:21:41;;;;;;;9.27;8.55;;;14.80;95.60;;;17.65;40.17;98483.47;5182851;28;20786;-62
2021/05/03 07:24:15;;;;;;;8.63;7.93;;;14.60;95.40;;;17.93;39.75;98482.84;5185463;28;20290;-63
2021/05/03 07:26:48;;;;;;;8.68;8.07;;;14.80;95.30;;;18.26;38.78;98478.88;5178127;28;20225;-62
2021/05/03 07:29:20;;;;;;;9.13;8.45;;;14.80;94.40;;;18.31;37.50;98474.75;5173558;28;20705;-60
2021/05/03 07:31:53;;;;;;;8.98;8.38;;;15.20;93.50;;;18.60;38.07;98483.56;5177877;28;20202;-62
2021/05/03 07:34:25;;;;;;;9.10;8.50;;;15.30;94.00;;;18.85;36.76;98478.44;5184314;28;20199;-62
2021/05/03 07:36:57;;;;;;;7.90;7.30;;;15.20;93.20;;;19.07;36.52;98474.88;5184263;28;20199;-63
2021/05/03 07:39:29;;;;;;;8.35;7.65;;;15.30;92.90;;;18.96;35.52;98483.13;5182025;28;20297;-63
2021/05/03 07:42:01;;;;;;;7.60;7.00;;;15.60;91.60;;;19.59;34.06;98483.47;5183017;28;20198;-63
2021/05/03 07:44:53;;;;;;;7.32;6.72;;;15.90;90.80;;;19.61;34.90;98481.81;5168239;28;20709;-63
2021/05/03 07:47:27;;;;;;;8.82;8.13;;;16.10;91.10;;;19.56;34.01;98478.19;5184033;28;20199;-62
2021/05/03 07:49:59;;;;;;;8.77;8.07;;;16.30;90.10;;;19.54;35.26;98477.25;5180864;28;20218;-62
2021/05/03 07:52:36;;;;;;;8.23;7.68;;;16.10;91.00;;;19.17;36.34;98473.47;5178055;28;20669;-61
2021/05/03 07:55:11;;;;;;;8.55;7.95;;;16.20;91.20;;;18.68;36.56;98472.69;5177090;28;20199;-62
2021/05/03 07:57:44;;;;;;;8.35;7.65;;;16.20;90.30;;;18.51;37.34;98483.25;5177190;28;20206;-62
2021/05/03 08:00:18;;;;;;;8.38;7.75;;;16.40;90.60;;;18.60;37.36;98481.88;5183749;28;20218;-63
2021/05/03 08:02:50;;;;;;;8.25;7.65;;;16.60;89.20;;;18.43;37.25;98470.91;5187667;28;20281;-65
2021/05/03 08:05:24;;;;;;;7.60;7.00;;;16.40;89.80;;;18.52;36.71;98482.44;5179959;28;20209;-63
2021/05/03 08:07:56;;;;;;;8.38;7.68;;;16.40;89.30;;;18.40;36.81;98481.16;5175343;28;20702;-62
2021/05/03 08:10:28;;;;;;;7.95;7.38;;;16.40;88.60;;;18.14;36.83;98469.88;5176557;28;20579;-61
2021/05/03 08:13:00;;;;;;;7.43;6.93;;;16.30;88.50;;;18.17;37.20;98471.66;5173139;28;20646;-62
2021/05/03 08:15:32;;;;;;;8.05;7.45;;;16.30;89.50;;;18.30;37.28;98468.72;5179803;28;20201;-62
2021/05/03 08:18:05;;;;;;;8.05;7.47;;;16.60;88.10;;;18.28;36.08;98474.66;5183030;28;20230;-62
2021/05/03 08:20:37;;;;;;;7.63;7.03;;;16.30;85.50;;;18.15;37.03;98474.19;5175419;28;20237;-63
2021/05/03 08:23:18;;;;;;;7.78;7.18;;;16.10;88.10;;;17.91;37.11;98469.00;5181971;28;20202;-62
2021/05/03 08:25:54;;;;;;;7.35;6.85;;;16.10;88.10;;;18.05;37.35;98471.22;5181819;28;20634;-62
2021/05/03 08:28:26;;;;;;;7.38;6.72;;;16.40;87.70;;;18.14;35.40;98467.28;5182204;28;20213;-62
2021/05/03 08:30:58;;;;;;;7.20;6.60;;;16.60;84.60;;;17.79;35.96;98471.09;5181435;28;20305;-62
2021/05/03 08:33:31;;;;;;;7.05;6.45;;;16.50;83.60;;;17.91;37.07;98479.34;5169286;28;20720;-62
2021/05/03 08:36:04;;;;;;;7.25;6.65;;;16.80;85.70;;;17.60;37.67;98476.34;5171710;28;20289;-62
2021/05/03 08:38:36;;;;;;;7.45;6.85;;;16.50;85.60;;;17.34;36.42;98483.97;5181157;28;20198;-62
2021/05/03 08:41:08;;;;;;;7.03;6.53;;;16.10;84.60;;;17.05;36.27;98475.91;5181549;28;20229;-62
2021/05/03 08:43:42;;;;;;;6.25;5.78;;;15.70;83.60;;;16.74;37.73;98483.13;5180281;28;20301;-62
2021/05/03 08:46:25;;;;;;;7.20;6.70;;;15.30;84.20;;;16.44;36.22;98479.28;5167860;28;20207;-63
2021/05/03 08:49:03;;;;;;;6.10;5.65;;;15.00;83.00;;;16.18;37.44;98475.53;5179575;28;20205;-63
2021/05/03 08:51:42;;;;;;;7.07;6.47;;;14.80;84.90;;;15.31;39.31;98476.63;5170327;28;20248;-62
2021/05/03 08:54:20;;;;;;;6.45;5.90;;;14.60;85.60;;;15.48;39.42;98473.16;5176537;28;20626;-63
2021/05/03 08:56:53;;;;;;;7.10;6.60;;;14.20;87.10;;;15.73;39.21;98475.19;5170860;28;20306;-62
2021/05/03 08:59:25;;;;;;;6.93;6.32;;;14.30;87.30;;;15.71;39.13;98469.13;5166090;28;20408;-61
2021/05/03 09:01:58;;;;;;;7.43;6.82;;;14.20;87.50;;;15.61;38.78;98463.41;5172808;28;20290;-61
2021/05/03 09:04:31;;;;;;;7.10;6.60;;;14.10;87.10;;;15.34;39.20;98463.88;5178407;28;20204;-62
2021/05/03 09:07:11;;;;;;;7.10;6.50;;;13.90;87.60;;;15.30;39.89;98467.97;5170691;28;20290;-62
2021/05/03 09:09:47;;;;;;;6.47;5.97;;;13.70;88.50;;;15.40;39.87;98465.88;5169730;28;20307;-62
2021/05/03 09:12:21;;;;;;;6.88;6.43;;;13.80;89.00;;;15.42;39.83;98465.09;5180515;28;20205;-62
2021/05/03 09:14:56;;;;;;;7.13;6.55;;;14.10;88.40;;;15.22;39.76;98465.84;5187703;28;20629;-63
2021/05/03 09:17:44;;;;;;;7.50;6.90;;;13.90;87.30;;;15.16;39.47;98462.97;5183351;28;20198;-63
2021/05/03 09:20:21;;;;;;;6.60;6.03;;;13.60;87.80;;;15.11;40.48;98460.19;5186794;28;20603;-63
2021/05/03 09:22:57;;;;;;;6.90;6.32;;;13.50;89.00;;;15.18;39.25;98457.09;5186075;28;20207;-63
2021/05/03 09:25:33;;;;;;;6.80;6.30;;;13.60;88.30;;;15.17;39.33;98455.34;5187310;28;20290;-63
2021/05/03 09:28:11;;;;;;;7.10;6.60;;;13.60;88.10;;;15.09;39.86;98451.50;5187465;28;20190;-61
2021/05/03 09:30:44;;;;;;;6.30;5.80;;;13.40;88.80;;;15.04;40.59;98447.81;5187866;28;20218;-62
2021/05/03 09:33:20;;;;;;;7.28;6.68;;;13.40;89.20;;;14.86;40.49;98453.81;5168244;28;20671;-62
2021/05/03 09:35:57;;;;;;;7.00;6.30;;;13.40;88.60;;;14.76;39.48;98456.72;5177654;28;20195;-62
2021/05/03 09:38:38;;;;;;;6.55;6.05;;;13.30;86.70;;;14.52;40.04;98456.38;5177401;28;20201;-63
2021/05/03 09:41:22;;;;;;;6.75;6.15;;;13.00;88.30;;;14.42;40.76;98460.16;5179631;28;20214;-63
2021/05/03 09:43:58;;;;;;;6.80;6.32;;;12.90;89.80;;;14.31;41.16;98460.41;5179893;28;20203;-63
2021/05/03 09:46:36;;;;;;;6.88;6.35;;;12.90;89.80;;;14.28;40.93;98458.56;5172964;28;20197;-62
2021/05/03 09:49:10;;;;;;;6.93;6.40;;;12.90;90.00;;;14.38;41.70;98454.75;5178287;28;20666;-63
2021/05/03 09:51:47;;;;;;;7.85;7.22;;;12.80;90.00;;;14.34;41.85;98446.00;5186290;28;20666;-62
2021/05/03 09:54:25;;;;;;;6.90;6.40;;;12.90;90.50;;;14.34;42.35;98442.56;5186433;28;20199;-63
2021/05/03 09:57:01;;;;;;;6.93;6.43;;;12.90;90.60;;;14.42;42.24;98452.44;5184133;28;20569;-63
2021/05/03 09:59:37;;;;;;;6.80;6.30;;;12.90;91.00;;;14.61;40.96;98445.69;5182965;28;20713;-63
2021/05/03 10:02:16;;;;;;;6.82;6.32;;;13.20;89.90;;;14.79;40.13;98451.78;5181872;28;20213;-63
2021/05/03 10:04:58;;;;;;;6.47;6.07;;;13.30;88.60;;;14.89;38.14;98452.22;5183401;28;20289;-63
2021/05/03 10:07:34;;;;;;;6.47;6.07;;;13.40;84.50;;;14.79;39.26;98450.84;5178619;28;20202;-62
2021/05/03 10:10:12;;;;;;;7.22;6.55;;;13.50;85.70;;;15.02;38.38;98452.91;5176229;28;20511;-63
2021/05/03 10:12:45;;;;;;;7.25;6.65;;;13.70;84.40;;;14.97;37.57;98456.06;5179560;28;20206;-62
2021/05/03 10:15:19;;;;;;;6.75;6.20;;;13.70;84.60;;;14.73;39.15;98451.44;5183218;28;20290;-63
2021/05/03 10:17:51;;;;;;;6.95;6.45;;;13.60;84.60;;;14.79;40.06;98456.91;5166589;28;20207;-64
2021/05/03 10:20:24;;;;;;;6.65;6.15;;;13.40;87.30;;;14.81;39.43;98449.25;5184370;28;20744;-63
2021/05/03 10:22:57;;;;;;;7.25;6.60;;;13.30;86.90;;;14.74;40.59;98445.50;5180459;28;20199;-63
2021/05/03 10:25:29;;;;;;;6.47;5.97;;;13.40;89.10;;;14.94;40.95;98450.75;5180027;28;20206;-63
2021/05/03 10:28:01;;;;;;;6.38;5.78;;;13.60;88.80;;;15.00;40.45;98451.94;5188986;28;20198;-63
2021/05/03 10:30:41;;;;;;;6.70;6.20;;;13.80;87.70;;;14.76;39.63;98448.13;5177608;28;20223;-63
2021/05/03 10:33:14;;;;;;;6.57;5.97;;;13.70;86.60;;;14.80;41.03;98443.22;5186443;28;20317;-62
2021/05/03 10:35:49;;;;;;;6.15;5.75;;;13.90;88.30;;;15.01;41.24;98437.38;5183393;28;20199;-63
2021/05/03 10:38:36;;;;;;;6.20;5.80;;;14.10;88.30;;;15.23;40.37;98435.03;5182152;28;20206;-63
2021/05/03 10:41:26;;;;;;;5.65;5.15;;;14.10;86.80;;;15.22;39.74;98430.69;5186640;28;20649;-62
2021/05/03 10:44:20;;;;;;;6.32;5.82;;;14.10;86.30;;;15.21;39.17;98421.19;5179465;28;20202;-62
2021/05/03 10:46:57;;;;;;;6.47;6.00;;;14.10;85.60;;;15.22;38.27;98410.09;5181923;28;20207;-62
2021/05/03 10:49:41;;;;;;;6.05;5.55;;;14.30;83.70;;;15.25;40.07;98406.75;5185416;28;20728;-62
2021/05/03 10:52:16;;;;;;;7.40;6.65;;;14.40;86.50;;;15.28;38.21;98401.75;5186286;28;20699;-63
2021/05/03 10:54:54;;;;;;;6.90;6.40;;;14.40;82.00;;;15.37;36.53;98391.03;5184205;28;20206;-62
2021/05/03 10:57:35;;;;;;;6.72;6.18;;;14.60;80.00;;;15.37;37.56;98378.16;5184476;28;20201;-62